x

Nanakwa Shoal (46181) Wave Buoy

8:00am - Mon 29th May 2017 All times are PDT. -7 hours from GMT.

  • Sig Wave height 0.3ft
  • Peak Period 2s
  • Wind
    13mph, 13mph gusts
  • Sea Temp 55°f
  • Air Temp 53°f
  • Sea Pressure 1018.7mb
  • Nanakwa Shoal
  • Nanakwa Shoal

More Historic Weather Station data

Upgrade to MSW Pro to gain access to the past 30 days of data for over 8000 Wavebouys and Weather Stations around the globe.

Join Pro

Comparision Forecast

View Surf forecast
   
Mon 05/29 8:00am 0.3ft 2s 13 13 mph 1018.7mb 55f 53f
7:00am 0.3ft 2s 16 18 mph 1018.6mb 56f 52f
6:00am 0.3ft 2s 16 18 mph 1018.4mb 56f 52f
5:00am 0.3ft 2s 13 16 mph 1018.2mb 56f 53f
4:00am 0.3ft 2s 13 16 mph 1017.9mb 54f 53f
3:00am 0.3ft 2s 11 13 mph 1018.1mb 54f 53f
2:00am 0.3ft 2s 9 9 mph 1018.2mb 55f 54f
1:00am 0.7ft 2s 16 16 mph 1018.4mb 55f 55f
12:00am 1ft 2s 18 22 mph 1018.5mb 55f 55f
Sun 05/28 11:00pm 1.3ft 2s 22 27 mph 1017.9mb 54f 57f
10:00pm 1.3ft 2s 22 25 mph 1017.8mb 55f 57f
9:00pm 1.3ft 3s 22 27 mph 1017.3mb 57f 59f
8:00pm 1.3ft 3s 22 27 mph 1016.9mb 58f 63f
7:00pm 1.3ft 3s 22 25 mph 1016.6mb 59f 67f
6:00pm 1.3ft 3s 20 22 mph 1016.3mb 59f 65f
5:00pm 1.3ft 3s 22 25 mph 1016.5mb 59f 66f
4:00pm 0.7ft 3s 18 20 mph 1016.6mb 61f 69f
3:00pm 0.3ft 2s 9 16 mph 1017mb 63f 67f
2:00pm  -  2s  -  2 mph 1017.4mb 62f 64f
1:00pm  -  2s 4 7 mph 1018.2mb 61f 62f
12:00pm  -  2s 4 7 mph 1018.4mb 61f 63f
11:00am  -  2s  -  2 mph 1019mb 60f 61f
10:00am 0.3ft 2s  -  2 mph 1019.6mb 58f 59f
9:00am 0.3ft 2s 9 11 mph 1019.9mb 57f 57f
8:00am 0.3ft 2s 11 16 mph 1019.9mb 57f 56f
7:00am 0.3ft 2s 7 9 mph 1020mb 57f 54f
6:00am 0.3ft 2s 9 11 mph 1019.6mb 57f 54f
5:00am 0.3ft 2s 4 7 mph 1019.2mb 58f 56f
4:00am  -  4s 4 9 mph 1019.2mb 58f 57f
3:00am  -  4s  -  2 mph 1019.1mb 58f 58f
2:00am  -  4s 4 7 mph 1019.1mb 58f 57f
1:00am  -  4s 2 4 mph 1019.1mb 58f 58f
12:00am  -  4s 2 4 mph 1019.1mb 58f 59f
Sat 05/27 11:00pm 0.3ft 2s 4 7 mph 1018.9mb 58f 61f
10:00pm 0.3ft 2s 4 7 mph 1018.6mb 58f 64f
9:00pm 0.3ft 2s 4 7 mph 1018.3mb 59f 66f
8:00pm 0.3ft 2s 9 9 mph 1018.2mb 60f 69f
7:00pm  -  2s 11 13 mph 1018.1mb 61f 68f
6:00pm  -  2s 9 11 mph 1018.2mb 62f 67f
5:00pm  -  2s 7 9 mph 1018.5mb 61f 67f
4:00pm  -  2s 7 9 mph 1018.6mb 62f 66f
3:00pm  -  2s  -  4 mph 1019mb 63f 65f
2:00pm  -  2s  -  2 mph 1019.4mb 61f 64f
1:00pm  -  2s 4 4 mph 1019.9mb 60f 62f
12:00pm 0.3ft 2s 7 7 mph 1020.4mb 59f 60f
11:00am 0.3ft 2s 2 7 mph 1020.7mb 57f 60f
10:00am 0.3ft 2s 4 4 mph 1021.2mb 56f 57f
9:00am 0.3ft 2s 13 16 mph 1021.3mb 56f 55f
8:00am 0.3ft 2s 9 13 mph 1021.4mb 55f 53f
7:00am 0.3ft 2s 11 13 mph 1021.1mb 55f 52f
6:00am 0.3ft 2s 4 9 mph 1020.8mb 54f 52f
5:00am 0.3ft 3s 4 4 mph 1020.1mb 54f 52f
4:00am  -  4s 7 9 mph 1019.7mb 54f 53f
3:00am 0.3ft 3s 4 4 mph 1019.5mb 54f 53f
2:00am 0.3ft 2s  -  2 mph 1019.1mb 54f 53f
1:00am 0.3ft 2s 4 7 mph 1018.7mb 55f 56f
12:00am 0.3ft 2s 7 9 mph 1018.2mb 55f 56f
Fri 05/26 11:00pm 0.3ft 2s 11 13 mph 1017.8mb 55f 58f
10:00pm 0.3ft 2s 13 16 mph 1017.3mb 55f 59f
9:00pm 0.7ft 2s 16 18 mph 1016.5mb 56f 62f
8:00pm 0.7ft 2s 13 16 mph 1016.2mb 57f 63f
7:00pm 0.7ft 3s 16 18 mph 1016.1mb 57f 64f
6:00pm 0.7ft 2s 16 16 mph 1015.8mb 58f 64f
5:00pm 0.7ft 2s 13 16 mph 1015.6mb 57f 62f
4:00pm 0.3ft 2s 13 16 mph 1015.6mb 58f 61f
3:00pm 0.3ft 2s 13 16 mph 1015.7mb 59f 61f
2:00pm 0.3ft 2s 9 11 mph 1015.8mb 58f 61f
1:00pm 0.3ft 4s 9 11 mph 1016.1mb 60f 59f
12:00pm  -  5s  -  mph 1016.5mb 58f 59f
11:00am 0.3ft 5s  -  2 mph 1016.8mb 56f 57f
10:00am  -  2s  -  0 mph 1017mb 55f 55f
9:00am  -  7s 4 7 mph 1017.3mb 54f 53f
8:00am  -  2s 7 7 mph 1017.2mb 53f 51f
7:00am 0.3ft 3s 4 7 mph 1017.3mb 53f 50f
6:00am  -  3s 7 9 mph 1016.7mb 53f 51f
5:00am  -  3s 4 7 mph 1016.5mb 53f 51f
4:00am 0.3ft 3s 2 4 mph 1016.1mb 53f 51f
3:00am 0.3ft 2s 2 4 mph 1015.8mb 53f 52f
2:00am 0.3ft 2s  -  2 mph 1015.4mb 53f 53f
1:00am 0.3ft 2s 2 4 mph 1015mb 54f 53f
12:00am 0.3ft 2s  -  0 mph 1014.6mb 55f 55f
Thu 05/25 11:00pm 0.3ft 2s 2 4 mph 1014.1mb 54f 56f
10:00pm 0.7ft 2s 9 18 mph 1013.7mb 54f 58f
9:00pm 0.7ft 2s 16 20 mph 1013.3mb 54f 60f
8:00pm 0.7ft 2s 18 20 mph 1013.2mb 55f 61f
7:00pm 0.3ft 2s 18 22 mph 1013.2mb 56f 62f
6:00pm 0.3ft 2s 13 16 mph 1013.2mb 56f 61f
5:00pm 0.3ft 2s 9 13 mph 1013.4mb 57f 60f